Time;durP1;ratioP1;P1;durP2;ratioP2;P2;SDS_P1;SDS_P2;PMS_P1;PMS_P2;Temp;Humidity;BMP_temperature;BMP_pressure;BME280_temperature;BME280_humidity;BME280_pressure;Samples;Min_cycle;Max_cycle;Signal;HPM_P1;HPM_P2
2021/04/22 00:00:09;;;;;;;19.23;10.98;;;;;;;;;;4968310;28;20050;-68
2021/04/22 00:02:37;;;;;;;24.50;12.90;;;;;;;;;;4971786;28;20047;-67
2021/04/22 00:05:10;;;;;;;25.33;12.75;;;;;;;;;;4969009;28;20058;-68
2021/04/22 00:07:37;;;;;;;22.75;12.50;;;;;;;;;;4973799;28;20102;-68
2021/04/22 00:10:07;;;;;;;21.73;12.13;;;;;;;;;;4969110;28;20082;-68
2021/04/22 00:12:34;;;;;;;21.20;11.98;;;;;;;;;;4973312;28;20113;-68
2021/04/22 00:15:02;;;;;;;21.63;12.57;;;;;;;;;;4971997;28;20049;-67
2021/04/22 00:17:29;;;;;;;26.73;12.02;;;;;;;;;;4973275;28;20541;-67
2021/04/22 00:19:57;;;;;;;24.63;11.35;;;;;;;;;;4972197;28;20042;-68
2021/04/22 00:22:24;;;;;;;21.05;11.70;;;;;;;;;;4974396;28;20184;-68
2021/04/22 00:24:52;;;;;;;23.55;12.57;;;;;;;;;;4971549;28;20054;-68
2021/04/22 00:27:19;;;;;;;18.88;10.95;;;;;;;;;;4970753;28;20054;-68
2021/04/22 00:29:46;;;;;;;21.25;12.32;;;;;;;;;;4972178;28;20046;-68
2021/04/22 00:32:15;;;;;;;20.08;11.90;;;;;;;;;;4967651;28;20417;-68
2021/04/22 00:34:42;;;;;;;20.15;11.57;;;;;;;;;;4960461;28;20047;-67
2021/04/22 00:37:10;;;;;;;24.92;11.88;;;;;;;;;;4964025;28;20082;-68
2021/04/22 00:39:38;;;;;;;23.13;12.48;;;;;;;;;;4965305;28;20047;-67
2021/04/22 00:42:06;;;;;;;22.17;11.88;;;;;;;;;;4973451;28;20066;-67
2021/04/22 00:44:33;;;;;;;18.40;10.70;;;;;;;;;;4964325;28;20522;-68
2021/04/22 00:47:01;;;;;;;23.92;11.45;;;;;;;;;;4960290;28;20046;-68
2021/04/22 00:49:28;;;;;;;21.75;12.00;;;;;;;;;;4963245;28;20043;-68
2021/04/22 00:51:56;;;;;;;21.13;12.98;;;;;;;;;;4969886;28;20134;-69
2021/04/22 00:54:24;;;;;;;22.52;12.02;;;;;;;;;;4969998;28;20138;-68
2021/04/22 00:56:51;;;;;;;24.05;12.65;;;;;;;;;;4972700;28;20503;-69
2021/04/22 00:59:19;;;;;;;21.63;12.60;;;;;;;;;;4971287;28;20078;-68
2021/04/22 01:01:47;;;;;;;19.88;11.48;;;;;;;;;;4968411;28;20192;-68
2021/04/22 01:04:15;;;;;;;19.70;11.57;;;;;;;;;;4963505;28;20418;-68
2021/04/22 01:06:42;;;;;;;22.05;11.48;;;;;;;;;;4968798;28;20058;-68
2021/04/22 01:09:14;;;;;;;21.77;12.02;;;;;;;;;;4973137;28;20086;-68
2021/04/22 01:11:42;;;;;;;23.23;12.18;;;;;;;;;;4971727;28;20046;-68
2021/04/22 01:14:09;;;;;;;23.00;12.20;;;;;;;;;;4971133;28;20113;-69
2021/04/22 01:16:37;;;;;;;22.27;13.05;;;;;;;;;;4972903;28;20495;-68
2021/04/22 01:19:05;;;;;;;22.95;12.23;;;;;;;;;;4963800;28;20066;-68
2021/04/22 01:21:34;;;;;;;19.33;11.05;;;;;;;;;;4969725;28;20121;-68
2021/04/22 01:24:01;;;;;;;21.15;11.63;;;;;;;;;;4972754;28;20066;-68
2021/04/22 01:26:29;;;;;;;20.52;11.73;;;;;;;;;;4972443;28;20155;-69
2021/04/22 01:28:56;;;;;;;20.48;11.75;;;;;;;;;;4965300;28;20079;-68
2021/04/22 01:31:25;;;;;;;21.48;12.55;;;;;;;;;;4958227;28;20469;-68
2021/04/22 01:33:59;;;;;;;20.83;11.93;;;;;;;;;;4962362;28;20051;-68
2021/04/22 01:36:26;;;;;;;21.27;11.68;;;;;;;;;;4970857;28;20595;-68
2021/04/22 01:38:54;;;;;;;25.85;13.88;;;;;;;;;;4971193;28;20070;-68
2021/04/22 01:41:22;;;;;;;24.55;13.57;;;;;;;;;;4970459;28;20075;-68
2021/04/22 01:43:49;;;;;;;19.40;11.73;;;;;;;;;;4971432;28;20093;-68
2021/04/22 01:46:17;;;;;;;17.70;10.82;;;;;;;;;;4969861;28;20094;-69
2021/04/22 01:48:44;;;;;;;24.20;12.35;;;;;;;;;;4968653;28;20077;-68
2021/04/22 01:51:12;;;;;;;22.65;12.25;;;;;;;;;;4958120;28;20058;-68
2021/04/22 01:53:39;;;;;;;22.65;12.15;;;;;;;;;;4958455;28;20455;-68
2021/04/22 01:56:08;;;;;;;21.23;11.65;;;;;;;;;;4967835;28;20208;-68
2021/04/22 01:58:35;;;;;;;21.70;11.45;;;;;;;;;;4967982;28;20130;-68
2021/04/22 02:01:02;;;;;;;22.70;12.68;;;;;;;;;;4969263;28;20150;-68
2021/04/22 02:03:31;;;;;;;22.58;11.40;;;;;;;;;;4959276;28;20596;-68
2021/04/22 02:05:58;;;;;;;19.35;10.55;;;;;;;;;;4968453;28;20134;-69
2021/04/22 02:08:26;;;;;;;19.27;11.73;;;;;;;;;;4960720;28;20079;-68
2021/04/22 02:10:53;;;;;;;22.13;11.18;;;;;;;;;;4970115;28;20481;-68
2021/04/22 02:13:22;;;;;;;22.63;12.55;;;;;;;;;;4969333;28;20050;-68
2021/04/22 02:15:50;;;;;;;24.98;12.60;;;;;;;;;;4967832;28;20078;-68
2021/04/22 02:18:17;;;;;;;20.33;11.60;;;;;;;;;;4967594;28;20102;-68
2021/04/22 02:20:45;;;;;;;18.27;11.13;;;;;;;;;;4971259;28;20076;-69
2021/04/22 02:23:13;;;;;;;21.55;11.57;;;;;;;;;;4969110;28;20418;-68
2021/04/22 02:25:41;;;;;;;20.08;10.32;;;;;;;;;;4966384;28;20051;-69
2021/04/22 02:28:09;;;;;;;20.73;10.93;;;;;;;;;;4958580;28;20051;-68
2021/04/22 02:30:38;;;;;;;18.63;10.75;;;;;;;;;;4968356;28;20051;-68
2021/04/22 02:33:06;;;;;;;18.27;10.15;;;;;;;;;;4960039;28;20051;-68
2021/04/22 02:35:34;;;;;;;20.25;10.43;;;;;;;;;;4961195;28;20047;-68
2021/04/22 02:38:03;;;;;;;21.10;10.02;;;;;;;;;;4962378;28;20558;-68
2021/04/22 02:40:31;;;;;;;20.13;10.63;;;;;;;;;;4970754;28;20089;-68
2021/04/22 02:42:59;;;;;;;20.83;10.45;;;;;;;;;;4969001;28;20465;-68
2021/04/22 02:45:27;;;;;;;19.73;9.65;;;;;;;;;;4971102;28;20141;-68
2021/04/22 02:47:56;;;;;;;19.13;10.55;;;;;;;;;;4954837;28;20138;-69
2021/04/22 02:50:25;;;;;;;16.55;9.65;;;;;;;;;;4969358;28;20046;-68
2021/04/22 02:52:52;;;;;;;18.52;10.52;;;;;;;;;;4970794;28;20231;-68
2021/04/22 02:55:20;;;;;;;16.92;9.85;;;;;;;;;;4967038;28;20138;-68
2021/04/22 02:58:07;;;;;;;16.58;9.43;;;;;;;;;;4969592;28;20058;-68
2021/04/22 03:00:34;;;;;;;17.92;9.32;;;;;;;;;;4971013;28;20056;-68
2021/04/22 03:03:03;;;;;;;17.73;9.65;;;;;;;;;;4965293;28;20141;-68
2021/04/22 03:05:30;;;;;;;14.82;8.85;;;;;;;;;;4963604;28;20581;-68
2021/04/22 03:07:57;;;;;;;17.67;8.90;;;;;;;;;;4967962;28;20074;-68
2021/04/22 03:10:26;;;;;;;16.48;8.75;;;;;;;;;;4970039;28;20534;-68
2021/04/22 03:12:53;;;;;;;14.63;9.02;;;;;;;;;;4964095;28;20082;-68
2021/04/22 03:15:21;;;;;;;13.48;8.40;;;;;;;;;;4971763;28;20078;-68
2021/04/22 03:17:49;;;;;;;13.57;8.35;;;;;;;;;;4969437;28;20082;-68
2021/04/22 03:20:19;;;;;;;17.58;9.60;;;;;;;;;;4968616;28;20138;-68
2021/04/22 03:22:47;;;;;;;16.20;9.52;;;;;;;;;;4963146;28;20266;-68
2021/04/22 03:25:15;;;;;;;19.17;8.57;;;;;;;;;;4968584;28;20495;-68
2021/04/22 03:27:42;;;;;;;15.52;8.82;;;;;;;;;;4968378;28;20059;-68
2021/04/22 03:30:11;;;;;;;19.85;10.68;;;;;;;;;;4967949;28;20501;-68
2021/04/22 03:32:38;;;;;;;18.60;9.93;;;;;;;;;;4967962;28;20078;-68
2021/04/22 03:35:06;;;;;;;15.63;9.18;;;;;;;;;;4971629;28;20078;-69
2021/04/22 03:37:34;;;;;;;16.77;9.15;;;;;;;;;;4968804;28;20056;-68
2021/04/22 03:40:02;;;;;;;13.13;8.55;;;;;;;;;;4976393;28;20133;-68
2021/04/22 03:42:29;;;;;;;15.13;8.82;;;;;;;;;;4973289;28;20058;-68
2021/04/22 03:44:56;;;;;;;17.38;9.50;;;;;;;;;;4974123;28;20141;-68
2021/04/22 03:47:24;;;;;;;15.40;8.90;;;;;;;;;;4972656;28;20122;-68
2021/04/22 03:49:51;;;;;;;15.90;8.82;;;;;;;;;;4973309;28;20062;-68
2021/04/22 03:52:20;;;;;;;15.55;8.85;;;;;;;;;;4972125;28;20132;-68
2021/04/22 03:54:48;;;;;;;16.42;10.10;;;;;;;;;;4973824;28;20554;-69
2021/04/22 03:57:16;;;;;;;18.05;8.90;;;;;;;;;;4975718;28;20164;-68
2021/04/22 03:59:43;;;;;;;25.17;10.82;;;;;;;;;;4964964;28;20142;-68
2021/04/22 04:02:11;;;;;;;18.10;10.30;;;;;;;;;;4977019;28;20149;-68
2021/04/22 04:04:38;;;;;;;20.00;11.73;;;;;;;;;;4973944;28;20058;-68
2021/04/22 04:07:06;;;;;;;27.52;11.20;;;;;;;;;;4961101;28;20076;-67
2021/04/22 04:09:33;;;;;;;23.20;11.73;;;;;;;;;;4969402;28;20081;-68
2021/04/22 04:12:01;;;;;;;20.85;11.27;;;;;;;;;;4973657;28;20451;-68
2021/04/22 04:14:29;;;;;;;22.83;12.07;;;;;;;;;;4972168;28;20046;-68
2021/04/22 04:16:56;;;;;;;22.98;11.23;;;;;;;;;;4973566;28;20054;-68
2021/04/22 04:19:24;;;;;;;22.45;11.40;;;;;;;;;;4968189;28;20051;-68
2021/04/22 04:21:51;;;;;;;22.13;11.80;;;;;;;;;;4965610;28;20047;-69
2021/04/22 04:24:19;;;;;;;22.27;11.68;;;;;;;;;;4967463;28;20113;-68
2021/04/22 04:26:46;;;;;;;25.67;12.18;;;;;;;;;;4957731;28;20571;-69
2021/04/22 04:29:14;;;;;;;19.25;10.93;;;;;;;;;;4974173;28;20057;-68
2021/04/22 04:31:42;;;;;;;21.92;10.50;;;;;;;;;;4975016;28;20125;-68
2021/04/22 04:34:09;;;;;;;21.00;11.23;;;;;;;;;;4973711;28;20058;-68
2021/04/22 04:36:37;;;;;;;23.63;11.07;;;;;;;;;;4961024;28;20129;-69
2021/04/22 04:39:04;;;;;;;22.70;11.80;;;;;;;;;;4970961;28;20141;-68
2021/04/22 04:41:32;;;;;;;22.70;10.43;;;;;;;;;;4971951;28;20043;-68
2021/04/22 04:43:59;;;;;;;22.13;11.55;;;;;;;;;;4972321;28;20046;-68
2021/04/22 04:46:27;;;;;;;21.75;11.18;;;;;;;;;;4971064;28;20109;-68
2021/04/22 04:48:55;;;;;;;21.88;11.05;;;;;;;;;;4967343;28;20051;-68
2021/04/22 04:51:22;;;;;;;24.80;11.43;;;;;;;;;;4953833;29;20153;-68
2021/04/22 04:53:51;;;;;;;23.02;11.80;;;;;;;;;;4962663;28;20045;-68
2021/04/22 04:56:18;;;;;;;24.98;11.07;;;;;;;;;;4970142;28;20129;-68
2021/04/22 04:58:46;;;;;;;23.42;12.02;;;;;;;;;;4968491;28;20059;-68
2021/04/22 05:01:15;;;;;;;19.90;11.18;;;;;;;;;;4962097;28;20156;-68
2021/04/22 05:03:43;;;;;;;21.00;10.93;;;;;;;;;;4970594;28;20066;-68
2021/04/22 05:06:10;;;;;;;24.73;11.88;;;;;;;;;;4972173;28;20577;-68
2021/04/22 05:08:38;;;;;;;27.92;13.38;;;;;;;;;;4963492;28;20468;-68
2021/04/22 05:11:05;;;;;;;21.83;11.32;;;;;;;;;;4966060;28;20082;-68
2021/04/22 05:13:32;;;;;;;25.23;11.93;;;;;;;;;;4959924;28;20110;-68
2021/04/22 05:16:00;;;;;;;24.77;11.52;;;;;;;;;;4964967;28;20082;-68
2021/04/22 05:18:27;;;;;;;25.65;12.25;;;;;;;;;;4972075;28;20095;-68
2021/04/22 05:20:56;;;;;;;32.17;12.95;;;;;;;;;;4970534;28;20142;-69
2021/04/22 05:23:23;;;;;;;24.05;13.27;;;;;;;;;;4965900;28;20054;-68
2021/04/22 05:25:53;;;;;;;28.02;13.25;;;;;;;;;;4963176;28;20558;-68
2021/04/22 05:28:21;;;;;;;25.90;14.25;;;;;;;;;;4966326;28;20415;-68
2021/04/22 05:30:49;;;;;;;29.48;14.82;;;;;;;;;;4964176;28;20075;-69
2021/04/22 05:33:16;;;;;;;35.05;15.07;;;;;;;;;;4966853;28;20499;-68
2021/04/22 05:35:45;;;;;;;32.17;15.98;;;;;;;;;;4959052;28;20292;-68
2021/04/22 05:38:13;;;;;;;30.17;15.25;;;;;;;;;;4957361;28;20051;-69
2021/04/22 05:40:40;;;;;;;27.33;14.25;;;;;;;;;;4959208;28;20057;-69
2021/04/22 05:43:08;;;;;;;33.33;15.55;;;;;;;;;;4965999;28;20157;-68
2021/04/22 05:45:36;;;;;;;34.03;16.13;;;;;;;;;;4959480;28;20058;-70
2021/04/22 05:48:04;;;;;;;26.10;14.10;;;;;;;;;;4961383;28;20086;-68
2021/04/22 05:50:31;;;;;;;31.83;15.75;;;;;;;;;;4964777;28;20051;-69
2021/04/22 05:52:58;;;;;;;32.17;15.98;;;;;;;;;;4963934;28;20149;-68
2021/04/22 05:55:27;;;;;;;29.65;15.40;;;;;;;;;;4960558;28;20067;-69
2021/04/22 05:57:55;;;;;;;28.45;15.48;;;;;;;;;;4956599;28;20071;-69
2021/04/22 06:00:23;;;;;;;26.73;14.85;;;;;;;;;;4963636;28;20058;-68
2021/04/22 06:02:50;;;;;;;26.55;15.00;;;;;;;;;;4964519;28;20053;-69
2021/04/22 06:05:34;;;;;;;30.35;16.10;;;;;;;;;;824683;28;10002390;-69
2021/04/22 06:08:01;;;;;;;28.92;14.95;;;;;;;;;;4957038;28;20282;-68
2021/04/22 06:10:30;;;;;;;27.05;14.98;;;;;;;;;;4965447;28;20043;-70
2021/04/22 06:13:03;;;;;;;33.20;15.15;;;;;;;;;;4956414;28;20058;-69
2021/04/22 06:15:30;;;;;;;34.67;15.60;;;;;;;;;;4961086;28;20109;-69
2021/04/22 06:17:58;;;;;;;28.42;14.85;;;;;;;;;;4965220;28;20053;-69
2021/04/22 06:20:26;;;;;;;24.45;14.15;;;;;;;;;;4960803;28;20054;-69
2021/04/22 06:22:54;;;;;;;24.33;14.63;;;;;;;;;;4964510;28;20088;-68
2021/04/22 06:25:22;;;;;;;26.92;13.93;;;;;;;;;;4969826;28;20046;-68
2021/04/22 06:27:51;;;;;;;28.70;14.75;;;;;;;;;;4964315;28;20093;-68
2021/04/22 06:30:24;;;;;;;27.88;14.65;;;;;;;;;;4960901;28;20053;-68
2021/04/22 06:32:51;;;;;;;26.38;15.93;;;;;;;;;;4959728;28;20062;-69
2021/04/22 06:35:19;;;;;;;29.30;15.23;;;;;;;;;;4957723;28;20055;-68
2021/04/22 06:37:46;;;;;;;27.75;16.17;;;;;;;;;;4953691;28;20484;-69
2021/04/22 06:40:15;;;;;;;32.63;15.95;;;;;;;;;;4959905;28;20055;-69
2021/04/22 06:42:52;;;;;;;29.65;16.17;;;;;;;;;;4959503;28;20106;-68
2021/04/22 06:45:20;;;;;;;29.90;16.25;;;;;;;;;;4965694;28;20050;-68
2021/04/22 06:47:48;;;;;;;32.65;17.67;;;;;;;;;;4966236;28;20058;-68
2021/04/22 06:50:18;;;;;;;30.00;16.55;;;;;;;;;;4965947;28;20498;-68
2021/04/22 06:52:46;;;;;;;29.38;16.15;;;;;;;;;;4967971;28;20109;-68
2021/04/22 06:55:15;;;;;;;26.50;16.58;;;;;;;;;;4964755;28;20046;-68
2021/04/22 06:57:58;;;;;;;27.65;15.38;;;;;;;;;;4965945;28;20055;-68
2021/04/22 07:00:26;;;;;;;28.92;16.45;;;;;;;;;;4976970;28;20065;-68
2021/04/22 07:02:54;;;;;;;30.35;16.88;;;;;;;;;;4964234;28;20447;-68
2021/04/22 07:05:22;;;;;;;29.52;16.70;;;;;;;;;;4969069;28;20431;-68
2021/04/22 07:07:50;;;;;;;29.15;16.50;;;;;;;;;;4963369;28;20101;-68
2021/04/22 07:10:18;;;;;;;34.30;16.48;;;;;;;;;;4971355;28;20055;-67
2021/04/22 07:12:46;;;;;;;29.42;16.40;;;;;;;;;;4966945;28;20054;-68
2021/04/22 07:15:16;;;;;;;30.52;16.77;;;;;;;;;;4975662;28;20050;-68
2021/04/22 07:17:50;;;;;;;28.08;17.23;;;;;;;;;;4960730;28;20065;-68
2021/04/22 07:20:19;;;;;;;29.83;16.55;;;;;;;;;;4961550;28;20043;-67
2021/04/22 07:22:53;;;;;;;29.60;16.33;;;;;;;;;;4953731;28;20059;-68
2021/04/22 07:25:21;;;;;;;29.50;17.75;;;;;;;;;;4971350;28;20522;-68
2021/04/22 07:27:49;;;;;;;27.95;17.45;;;;;;;;;;4958644;28;20043;-67
2021/04/22 07:30:19;;;;;;;28.27;16.58;;;;;;;;;;4963517;28;20042;-68
2021/04/22 07:32:47;;;;;;;28.83;16.25;;;;;;;;;;4963010;28;20130;-68
2021/04/22 07:35:18;;;;;;;28.38;16.73;;;;;;;;;;4961209;28;20055;-69
2021/04/22 07:37:46;;;;;;;28.38;16.42;;;;;;;;;;4963832;28;20050;-69
2021/04/22 07:40:16;;;;;;;27.60;17.02;;;;;;;;;;4970098;28;20069;-68
2021/04/22 07:42:45;;;;;;;26.77;16.45;;;;;;;;;;4951819;29;20130;-69
2021/04/22 07:45:14;;;;;;;30.50;17.10;;;;;;;;;;4964626;28;20047;-69
2021/04/22 07:47:43;;;;;;;28.65;16.73;;;;;;;;;;4963126;28;20046;-69
2021/04/22 07:50:12;;;;;;;28.17;15.88;;;;;;;;;;4966224;28;20047;-68
2021/04/22 07:52:40;;;;;;;27.55;17.25;;;;;;;;;;4967686;28;20053;-68
2021/04/22 07:55:09;;;;;;;24.65;15.30;;;;;;;;;;4955357;28;20105;-69
2021/04/22 07:57:38;;;;;;;25.55;16.50;;;;;;;;;;4967426;28;20168;-68
2021/04/22 08:00:07;;;;;;;29.02;16.80;;;;;;;;;;4953444;28;20062;-68
2021/04/22 08:02:40;;;;;;;27.38;16.00;;;;;;;;;;4968151;28;20094;-67
2021/04/22 08:05:10;;;;;;;28.73;16.77;;;;;;;;;;4952807;28;20106;-69
2021/04/22 08:07:41;;;;;;;30.08;17.25;;;;;;;;;;4958266;28;20129;-68
2021/04/22 08:10:10;;;;;;;26.83;16.77;;;;;;;;;;4965169;28;20047;-69
2021/04/22 08:12:38;;;;;;;27.65;16.08;;;;;;;;;;4963458;28;20055;-68
2021/04/22 08:15:09;;;;;;;26.75;17.35;;;;;;;;;;4970767;28;20054;-70
2021/04/22 08:17:36;;;;;;;30.90;16.98;;;;;;;;;;4968653;28;20133;-70
2021/04/22 08:20:06;;;;;;;31.25;18.35;;;;;;;;;;4966207;28;20370;-67
2021/04/22 08:22:35;;;;;;;28.45;18.08;;;;;;;;;;4970781;28;20046;-67
2021/04/22 08:25:04;;;;;;;28.65;17.90;;;;;;;;;;4969106;28;20074;-67
2021/04/22 08:27:32;;;;;;;27.00;18.10;;;;;;;;;;4971851;28;20050;-67
2021/04/22 08:30:00;;;;;;;28.08;18.02;;;;;;;;;;4962285;28;20384;-68
2021/04/22 08:32:28;;;;;;;28.67;17.40;;;;;;;;;;4964084;28;20062;-67
2021/04/22 08:34:56;;;;;;;28.38;17.70;;;;;;;;;;4965492;28;20498;-67
2021/04/22 08:37:24;;;;;;;26.80;17.08;;;;;;;;;;4969522;28;20490;-67
2021/04/22 08:39:52;;;;;;;27.13;16.80;;;;;;;;;;4969181;28;20097;-68
2021/04/22 08:42:21;;;;;;;28.63;18.48;;;;;;;;;;4979178;28;20046;-67
2021/04/22 08:44:50;;;;;;;29.10;17.35;;;;;;;;;;4969962;28;20491;-68
2021/04/22 08:47:18;;;;;;;26.92;18.40;;;;;;;;;;4965330;28;20051;-68
2021/04/22 08:49:45;;;;;;;28.02;17.88;;;;;;;;;;4967589;28;20058;-68
2021/04/22 08:52:14;;;;;;;28.10;16.65;;;;;;;;;;4962083;28;20170;-67
2021/04/22 08:54:42;;;;;;;28.80;17.35;;;;;;;;;;4967589;28;20054;-67
2021/04/22 08:57:10;;;;;;;29.70;18.35;;;;;;;;;;4970402;28;20070;-67
2021/04/22 08:59:39;;;;;;;28.92;18.63;;;;;;;;;;4969413;28;20039;-67
2021/04/22 09:02:08;;;;;;;24.20;16.92;;;;;;;;;;4964998;28;20051;-67
2021/04/22 09:04:37;;;;;;;26.80;17.08;;;;;;;;;;4964102;28;20142;-66
2021/04/22 09:07:05;;;;;;;30.85;17.77;;;;;;;;;;4956683;28;20535;-67
2021/04/22 09:09:35;;;;;;;28.45;17.15;;;;;;;;;;4964469;28;20055;-66
2021/04/22 09:12:14;;;;;;;26.35;18.08;;;;;;;;;;4956500;28;20098;-66
2021/04/22 09:14:53;;;;;;;30.48;18.73;;;;;;;;;;4984714;28;20105;-67
2021/04/22 09:17:22;;;;;;;27.02;16.83;;;;;;;;;;4960435;28;20180;-66
2021/04/22 09:19:50;;;;;;;27.58;18.90;;;;;;;;;;4965954;28;20150;-66
2021/04/22 09:22:18;;;;;;;27.02;18.17;;;;;;;;;;4962048;28;20051;-68
2021/04/22 09:24:46;;;;;;;27.83;17.70;;;;;;;;;;4952588;28;20063;-66
2021/04/22 09:27:16;;;;;;;27.45;17.98;;;;;;;;;;4967795;28;20115;-66
2021/04/22 09:29:46;;;;;;;27.95;17.00;;;;;;;;;;4951951;28;20055;-67
2021/04/22 09:32:17;;;;;;;27.52;17.27;;;;;;;;;;4960059;28;20054;-67
2021/04/22 09:34:47;;;;;;;32.42;19.17;;;;;;;;;;4954122;28;20055;-68
2021/04/22 09:37:16;;;;;;;29.15;18.60;;;;;;;;;;4961741;28;20134;-67
2021/04/22 09:39:44;;;;;;;31.15;18.70;;;;;;;;;;4960396;28;20130;-69
2021/04/22 09:42:13;;;;;;;29.90;18.60;;;;;;;;;;4961353;28;20061;-67
2021/04/22 09:44:47;;;;;;;30.05;18.65;;;;;;;;;;4956917;28;20083;-68
2021/04/22 09:47:17;;;;;;;26.42;18.08;;;;;;;;;;4960951;28;20046;-69
2021/04/22 09:49:46;;;;;;;28.55;19.13;;;;;;;;;;4968020;28;20109;-69
2021/04/22 09:52:17;;;;;;;30.73;20.05;;;;;;;;;;4967274;28;20054;-67
2021/04/22 09:54:46;;;;;;;33.08;19.55;;;;;;;;;;4952143;28;20115;-69
2021/04/22 09:57:22;;;;;;;33.47;21.10;;;;;;;;;;4968540;28;20074;-69
2021/04/22 09:59:50;;;;;;;32.70;22.35;;;;;;;;;;4963918;28;20575;-67
2021/04/22 10:02:19;;;;;;;35.10;22.70;;;;;;;;;;4963708;28;20644;-72
2021/04/22 10:04:48;;;;;;;32.95;21.67;;;;;;;;;;4956017;28;20574;-68
2021/04/22 10:07:21;;;;;;;32.40;21.73;;;;;;;;;;4964934;28;20554;-68
2021/04/22 10:09:49;;;;;;;31.23;21.02;;;;;;;;;;4963296;28;20047;-71
2021/04/22 10:12:20;;;;;;;33.45;21.73;;;;;;;;;;4966747;28;20058;-70
2021/04/22 10:14:48;;;;;;;36.17;23.42;;;;;;;;;;4973941;28;20053;-71
2021/04/22 10:17:16;;;;;;;33.72;23.42;;;;;;;;;;4960956;28;20059;-67
2021/04/22 10:20:02;;;;;;;33.83;22.73;;;;;;;;;;4957663;28;20047;-70
2021/04/22 10:22:31;;;;;;;31.02;20.75;;;;;;;;;;4967349;28;20047;-69
2021/04/22 10:25:00;;;;;;;31.67;22.23;;;;;;;;;;4967756;28;20047;-67
2021/04/22 10:27:29;;;;;;;33.15;22.27;;;;;;;;;;4966487;28;20050;-71
2021/04/22 10:29:58;;;;;;;32.95;21.15;;;;;;;;;;4957586;28;20051;-71
2021/04/22 10:32:27;;;;;;;31.08;21.05;;;;;;;;;;4971649;28;20043;-70
2021/04/22 10:34:55;;;;;;;32.35;20.65;;;;;;;;;;4961590;28;20054;-71
2021/04/22 10:37:25;;;;;;;31.83;21.98;;;;;;;;;;4969489;28;20046;-67
2021/04/22 10:39:56;;;;;;;33.58;20.90;;;;;;;;;;4963446;28;20111;-67
2021/04/22 10:42:24;;;;;;;29.88;20.85;;;;;;;;;;4966556;28;20137;-67
2021/04/22 10:44:52;;;;;;;32.22;19.50;;;;;;;;;;4971674;28;20333;-68
2021/04/22 10:47:20;;;;;;;32.63;20.30;;;;;;;;;;4969664;28;20080;-69
2021/04/22 10:49:50;;;;;;;31.40;20.90;;;;;;;;;;4955909;28;20047;-73
2021/04/22 10:52:19;;;;;;;31.83;20.30;;;;;;;;;;4956991;28;20083;-72
2021/04/22 10:54:50;;;;;;;29.80;20.08;;;;;;;;;;4964594;28;20167;-68
2021/04/22 10:57:18;;;;;;;35.40;21.85;;;;;;;;;;4966164;28;20043;-67
2021/04/22 10:59:48;;;;;;;26.00;19.35;;;;;;;;;;4978508;28;20054;-69
2021/04/22 11:02:27;;;;;;;29.95;19.98;;;;;;;;;;4961200;28;20169;-67
2021/04/22 11:04:55;;;;;;;31.92;20.95;;;;;;;;;;4957999;28;20115;-68
2021/04/22 11:07:23;;;;;;;30.13;20.05;;;;;;;;;;4956436;28;20562;-69
2021/04/22 11:09:52;;;;;;;32.55;22.05;;;;;;;;;;4977398;28;20058;-69
2021/04/22 11:12:24;;;;;;;36.53;21.50;;;;;;;;;;4970316;28;20138;-70
2021/04/22 11:14:52;;;;;;;28.67;20.20;;;;;;;;;;4971373;28;20050;-68
2021/04/22 11:17:21;;;;;;;33.50;21.80;;;;;;;;;;4966851;28;20061;-72
2021/04/22 11:19:50;;;;;;;32.53;22.08;;;;;;;;;;4964463;28;20128;-76
2021/04/22 11:22:22;;;;;;;33.05;21.80;;;;;;;;;;4960807;28;20058;-67
2021/04/22 11:24:55;;;;;;;35.03;21.38;;;;;;;;;;4970797;28;20402;-69
2021/04/22 11:27:24;;;;;;;30.90;20.88;;;;;;;;;;4966534;28;20047;-68
2021/04/22 11:29:52;;;;;;;32.75;21.80;;;;;;;;;;4974110;28;20047;-68
2021/04/22 11:32:30;;;;;;;33.88;22.00;;;;;;;;;;4961533;28;20049;-68
2021/04/22 11:34:59;;;;;;;37.85;23.08;;;;;;;;;;4975956;28;20073;-67
2021/04/22 11:37:31;;;;;;;33.20;21.35;;;;;;;;;;4973243;28;20058;-71
2021/04/22 11:40:10;;;;;;;39.65;23.13;;;;;;;;;;4951969;29;20385;-69
2021/04/22 11:42:38;;;;;;;33.08;21.73;;;;;;;;;;4966632;28;20371;-67
2021/04/22 11:45:11;;;;;;;36.15;23.50;;;;;;;;;;4968084;28;20134;-67
2021/04/22 11:47:48;;;;;;;35.97;22.42;;;;;;;;;;4961174;28;20057;-74
2021/04/22 11:50:17;;;;;;;33.20;22.08;;;;;;;;;;4968183;28;20064;-72
2021/04/22 11:52:48;;;;;;;37.88;23.70;;;;;;;;;;4960284;28;20047;-68
2021/04/22 11:55:22;;;;;;;35.10;23.33;;;;;;;;;;4985027;28;20074;-71
2021/04/22 11:57:55;;;;;;;37.13;23.95;;;;;;;;;;4974823;28;20050;-70
2021/04/22 12:00:24;;;;;;;35.65;22.13;;;;;;;;;;4972186;28;20045;-72
2021/04/22 12:02:52;;;;;;;32.85;22.30;;;;;;;;;;4969346;28;20184;-71
2021/04/22 12:05:21;;;;;;;35.42;23.15;;;;;;;;;;4972280;28;20047;-68
2021/04/22 12:07:59;;;;;;;36.63;23.23;;;;;;;;;;4967807;28;20126;-70
2021/04/22 12:10:29;;;;;;;34.25;21.73;;;;;;;;;;4966644;28;20058;-67
2021/04/22 12:13:07;;;;;;;30.40;20.77;;;;;;;;;;4968320;28;20168;-67
2021/04/22 12:15:35;;;;;;;33.15;21.85;;;;;;;;;;4973158;28;20050;-68
2021/04/22 12:18:03;;;;;;;31.75;22.02;;;;;;;;;;4972372;28;20418;-67
2021/04/22 12:20:31;;;;;;;35.55;22.92;;;;;;;;;;4969822;28;20135;-68
2021/04/22 12:22:59;;;;;;;37.90;21.08;;;;;;;;;;4963260;28;20492;-71
2021/04/22 12:25:28;;;;;;;32.50;22.42;;;;;;;;;;4973106;28;20051;-67
2021/04/22 12:27:58;;;;;;;33.75;22.85;;;;;;;;;;4968236;28;20466;-67
2021/04/22 12:30:27;;;;;;;35.25;22.65;;;;;;;;;;4968879;28;20055;-67
2021/04/22 12:33:01;;;;;;;33.38;21.70;;;;;;;;;;4974632;28;20054;-66
2021/04/22 12:35:30;;;;;;;33.53;21.98;;;;;;;;;;4980784;28;20057;-72
2021/04/22 12:37:59;;;;;;;35.42;22.15;;;;;;;;;;4968880;28;20126;-67
2021/04/22 12:40:27;;;;;;;39.85;24.05;;;;;;;;;;4975932;28;20086;-69
2021/04/22 12:43:02;;;;;;;34.88;22.67;;;;;;;;;;4974031;28;20058;-67
2021/04/22 12:45:31;;;;;;;33.53;21.58;;;;;;;;;;4970119;28;20055;-73
2021/04/22 12:48:01;;;;;;;31.17;20.73;;;;;;;;;;4970865;28;20049;-69
2021/04/22 12:50:31;;;;;;;36.55;21.67;;;;;;;;;;4962417;28;20148;-68
2021/04/22 12:53:03;;;;;;;34.88;21.85;;;;;;;;;;4965853;28;20479;-69
2021/04/22 12:55:34;;;;;;;29.92;20.20;;;;;;;;;;4963060;28;20083;-67
2021/04/22 12:58:03;;;;;;;36.47;20.23;;;;;;;;;;4969395;28;20391;-71
2021/04/22 13:00:34;;;;;;;33.58;19.75;;;;;;;;;;4961398;28;20137;-76
2021/04/22 13:03:12;;;;;;;31.20;20.08;;;;;;;;;;4966364;28;20089;-71
2021/04/22 13:05:43;;;;;;;32.40;18.20;;;;;;;;;;4973246;28;20054;-69
2021/04/22 13:08:11;;;;;;;28.17;16.85;;;;;;;;;;4960714;28;20075;-78
2021/04/22 13:10:42;;;;;;;28.50;17.73;;;;;;;;;;4956660;28;20043;-67
2021/04/22 13:13:11;;;;;;;28.75;18.52;;;;;;;;;;4962875;28;20043;-70
2021/04/22 13:15:39;;;;;;;25.73;16.40;;;;;;;;;;4962969;28;20138;-67
2021/04/22 13:18:12;;;;;;;25.02;16.88;;;;;;;;;;4966911;28;20055;-67
2021/04/22 13:20:41;;;;;;;27.50;16.42;;;;;;;;;;4964829;28;20051;-66
2021/04/22 13:23:10;;;;;;;25.70;15.45;;;;;;;;;;4985532;28;20042;-68
2021/04/22 13:25:38;;;;;;;30.13;15.55;;;;;;;;;;4973019;28;20055;-70
2021/04/22 13:28:09;;;;;;;24.35;14.50;;;;;;;;;;4968604;28;20057;-69
2021/04/22 13:30:37;;;;;;;20.95;13.40;;;;;;;;;;4971957;28;20125;-69
2021/04/22 13:33:06;;;;;;;20.58;12.00;;;;;;;;;;4963228;28;20570;-67
2021/04/22 13:35:34;;;;;;;24.38;12.43;;;;;;;;;;4963942;28;20110;-69
2021/04/22 13:38:02;;;;;;;23.27;13.45;;;;;;;;;;4969736;28;20047;-67
2021/04/22 13:40:30;;;;;;;19.55;12.10;;;;;;;;;;4967632;28;20569;-66
2021/04/22 13:43:00;;;;;;;23.63;11.98;;;;;;;;;;4968017;28;20047;-69
2021/04/22 13:45:32;;;;;;;18.45;11.85;;;;;;;;;;4963960;28;20145;-69
2021/04/22 13:48:06;;;;;;;22.40;11.13;;;;;;;;;;4962382;28;20051;-67
2021/04/22 13:50:33;;;;;;;19.48;11.18;;;;;;;;;;4965594;28;20043;-67
2021/04/22 13:53:01;;;;;;;16.83;10.77;;;;;;;;;;4955589;28;20495;-67
2021/04/22 13:55:29;;;;;;;19.02;9.68;;;;;;;;;;4969244;28;20082;-68
2021/04/22 13:57:57;;;;;;;18.83;10.07;;;;;;;;;;4964246;28;20043;-68
2021/04/22 14:00:26;;;;;;;13.25;8.75;;;;;;;;;;4978239;28;20144;-68
2021/04/22 14:02:55;;;;;;;14.52;8.10;;;;;;;;;;4957266;28;20059;-69
2021/04/22 14:05:23;;;;;;;14.45;8.88;;;;;;;;;;4956315;28;20050;-67
2021/04/22 14:07:52;;;;;;;13.13;7.78;;;;;;;;;;4966808;28;20051;-70
2021/04/22 14:10:27;;;;;;;11.60;6.88;;;;;;;;;;4972032;28;20141;-73
2021/04/22 14:12:54;;;;;;;11.80;6.35;;;;;;;;;;4960687;28;20558;-71
2021/04/22 14:15:22;;;;;;;10.38;5.85;;;;;;;;;;4966161;28;20046;-67
2021/04/22 14:17:50;;;;;;;9.00;6.28;;;;;;;;;;4955399;28;20046;-70
2021/04/22 14:20:19;;;;;;;11.38;6.20;;;;;;;;;;4968636;28;20051;-67
2021/04/22 14:22:47;;;;;;;12.15;5.65;;;;;;;;;;4973167;28;20046;-72
2021/04/22 14:25:16;;;;;;;11.90;5.20;;;;;;;;;;4972033;28;20073;-67
2021/04/22 14:27:44;;;;;;;11.23;6.63;;;;;;;;;;4969884;28;20110;-68